Time;durP1;ratioP1;P1;durP2;ratioP2;P2;SDS_P1;SDS_P2;PMS_P1;PMS_P2;Temp;Humidity;BMP_temperature;BMP_pressure;BME280_temperature;BME280_humidity;BME280_pressure;Samples;Min_cycle;Max_cycle;Signal;HPM_P1;HPM_P2
2022/05/06 00:01:39;;;;;;;46.75;30.75;;;12.80;99.90;;;;;;5049248;28;20029;-50
2022/05/06 00:04:06;;;;;;;46.47;33.00;;;12.80;99.90;;;;;;5049239;28;20025;-50
2022/05/06 00:06:32;;;;;;;62.92;40.03;;;12.60;99.90;;;;;;5049309;28;20044;-50
2022/05/06 00:08:58;;;;;;;56.65;39.03;;;12.50;99.90;;;;;;5049118;28;20065;-51
2022/05/06 00:11:24;;;;;;;48.83;35.25;;;12.50;99.90;;;;;;5049451;28;20025;-50
2022/05/06 00:13:53;;;;;;;44.50;31.95;;;12.60;99.90;;;;;;5049462;28;20074;-51
2022/05/06 00:16:20;;;;;;;102.38;33.10;;;12.50;99.90;;;;;;5049099;28;20423;-50
2022/05/06 00:18:46;;;;;;;85.28;35.80;;;12.20;99.90;;;;;;5049035;28;20120;-50
2022/05/06 00:21:11;;;;;;;61.72;41.70;;;12.00;99.90;;;;;;5049254;28;20104;-50
2022/05/06 00:23:37;;;;;;;60.25;42.58;;;12.10;99.90;;;;;;5049238;28;20029;-50
2022/05/06 00:26:03;;;;;;;58.38;42.53;;;12.10;99.90;;;;;;5049240;28;20512;-50
2022/05/06 00:28:30;;;;;;;59.50;42.35;;;12.30;99.90;;;;;;5049306;28;20449;-50
2022/05/06 00:30:56;;;;;;;47.53;35.65;;;12.30;99.90;;;;;;5049372;28;20029;-50
2022/05/06 00:33:24;;;;;;;46.77;32.50;;;12.40;99.90;;;;;;5049233;28;20135;-50
2022/05/06 00:36:01;;;;;;;48.20;35.17;;;12.30;99.90;;;;;;5049053;28;20362;-50
2022/05/06 00:38:27;;;;;;;50.00;36.53;;;12.40;99.90;;;;;;5049258;28;20043;-50
2022/05/06 00:40:54;;;;;;;48.50;35.03;;;12.30;99.90;;;;;;5048925;28;20479;-50
2022/05/06 00:43:21;;;;;;;44.45;32.55;;;12.30;99.90;;;;;;5048955;28;20056;-50
2022/05/06 00:45:52;;;;;;;48.05;33.00;;;12.30;99.90;;;;;;5011342;28;20485;-51
2022/05/06 00:48:20;;;;;;;55.10;34.13;;;12.30;99.90;;;;;;5032399;28;20163;-51
2022/05/06 00:50:46;;;;;;;46.70;34.38;;;12.20;99.90;;;;;;5051166;28;20086;-50
2022/05/06 00:53:13;;;;;;;41.58;31.25;;;12.20;99.90;;;;;;5052621;28;20047;-53
2022/05/06 00:55:39;;;;;;;54.38;37.75;;;12.20;99.90;;;;;;5052256;28;20017;-50
2022/05/06 00:58:05;;;;;;;47.60;34.35;;;12.10;99.90;;;;;;5052220;28;20066;-50
2022/05/06 01:00:31;;;;;;;49.90;35.28;;;12.10;99.90;;;;;;5052488;28;20036;-50
2022/05/06 01:02:57;;;;;;;53.92;36.78;;;12.10;99.90;;;;;;5052250;28;20025;-49
2022/05/06 01:05:23;;;;;;;54.75;34.50;;;12.00;99.90;;;;;;5052193;28;20048;-50
2022/05/06 01:07:50;;;;;;;94.75;41.03;;;12.00;99.90;;;;;;5051966;28;20057;-50
2022/05/06 01:10:18;;;;;;;89.30;37.60;;;11.80;99.90;;;;;;5052076;28;20156;-50
2022/05/06 01:12:44;;;;;;;62.72;38.35;;;11.80;99.90;;;;;;5051999;28;20501;-50
2022/05/06 01:15:26;;;;;;;61.42;40.63;;;11.50;99.90;;;;;;5052162;28;20071;-50
2022/05/06 01:17:53;;;;;;;60.83;41.67;;;11.50;99.90;;;;;;5052235;28;20029;-51
2022/05/06 01:20:20;;;;;;;100.93;42.97;;;11.60;99.90;;;;;;5052144;28;20028;-50
2022/05/06 01:22:48;;;;;;;137.82;43.45;;;11.50;99.90;;;;;;5052009;28;20024;-50
2022/05/06 01:25:15;;;;;;;153.00;39.63;;;11.50;99.90;;;;;;5051943;28;20037;-50
2022/05/06 01:27:55;;;;;;;75.65;39.33;;;11.40;99.90;;;;;;5051919;28;20037;-50
2022/05/06 01:30:29;;;;;;;134.07;35.85;;;11.50;99.90;;;;;;5051705;28;20055;-51
2022/05/06 01:32:56;;;;;;;88.88;33.67;;;11.40;99.90;;;;;;5051768;28;20033;-51
2022/05/06 01:35:24;;;;;;;121.55;33.20;;;11.30;99.90;;;;;;5051722;28;20031;-48
2022/05/06 01:37:53;;;;;;;78.75;32.15;;;11.00;99.90;;;;;;5051975;28;20040;-51
2022/05/06 01:40:21;;;;;;;46.00;32.03;;;10.80;99.90;;;;;;5051906;28;20396;-48
2022/05/06 01:42:49;;;;;;;67.32;34.33;;;10.80;99.90;;;;;;5051734;28;20071;-50
2022/05/06 01:45:17;;;;;;;44.50;32.47;;;10.70;99.90;;;;;;5035837;28;20044;-51
2022/05/06 01:47:43;;;;;;;44.63;31.85;;;10.80;99.90;;;;;;5031649;28;20472;-50
2022/05/06 01:50:12;;;;;;;42.50;31.30;;;11.00;99.90;;;;;;5031716;28;20477;-52
2022/05/06 01:52:40;;;;;;;54.85;30.17;;;11.00;99.90;;;;;;5031928;28;20080;-50
2022/05/06 01:55:06;;;;;;;42.42;31.52;;;11.00;99.90;;;;;;5029934;28;20382;-52
2022/05/06 01:57:32;;;;;;;43.03;31.58;;;10.90;99.90;;;;;;5031655;28;20079;-51
2022/05/06 01:59:58;;;;;;;42.30;32.92;;;11.10;99.90;;;;;;5031109;28;20025;-50
2022/05/06 02:02:23;;;;;;;44.25;32.78;;;11.10;99.90;;;;;;5031458;28;20036;-51
2022/05/06 02:07:33;;;;;;;39.63;30.17;;;11.30;99.90;;;;;;5031166;28;20091;-50
2022/05/06 02:10:02;;;;;;;37.95;27.88;;;11.30;99.90;;;;;;5031417;28;20060;-51
2022/05/06 02:12:28;;;;;;;38.17;29.70;;;11.30;99.90;;;;;;5031150;28;20496;-50
2022/05/06 02:14:53;;;;;;;41.58;29.55;;;11.30;99.90;;;;;;5031026;28;20021;-50
2022/05/06 02:17:19;;;;;;;37.33;27.88;;;11.40;99.90;;;;;;5031543;28;20309;-50
2022/05/06 02:19:45;;;;;;;38.10;29.33;;;11.30;99.90;;;;;;5031006;28;20424;-50
2022/05/06 02:22:10;;;;;;;39.10;28.23;;;11.30;99.90;;;;;;5031234;28;20468;-51
2022/05/06 02:24:36;;;;;;;37.63;27.50;;;11.40;99.90;;;;;;5031012;28;20041;-50
2022/05/06 02:27:02;;;;;;;36.17;27.00;;;11.40;99.90;;;;;;5030939;28;20096;-51
2022/05/06 02:29:27;;;;;;;44.97;31.05;;;11.30;99.90;;;;;;5030836;28;20037;-50
2022/05/06 02:34:37;;;;;;;45.55;32.45;;;11.10;99.90;;;;;;5050607;28;20511;-51
2022/05/06 02:37:03;;;;;;;55.33;37.10;;;11.00;99.90;;;;;;5050585;28;20036;-51
2022/05/06 02:39:29;;;;;;;58.00;40.53;;;10.80;99.90;;;;;;5050673;28;20025;-51
2022/05/06 02:41:55;;;;;;;61.17;42.13;;;10.70;99.90;;;;;;5050369;28;20059;-50
2022/05/06 02:44:21;;;;;;;57.00;41.63;;;10.80;99.90;;;;;;5042346;28;20021;-50
2022/05/06 02:46:47;;;;;;;61.05;43.08;;;11.00;99.90;;;;;;5030488;28;20059;-50
2022/05/06 02:49:12;;;;;;;60.38;42.67;;;11.00;99.90;;;;;;5030595;28;20026;-50
2022/05/06 02:51:39;;;;;;;57.95;42.05;;;11.00;99.90;;;;;;5030401;28;20025;-50
2022/05/06 02:54:07;;;;;;;57.70;41.63;;;11.10;99.90;;;;;;5029210;28;20396;-50
2022/05/06 02:56:33;;;;;;;52.05;39.50;;;11.10;99.90;;;;;;5030356;28;20036;-50
2022/05/06 02:58:58;;;;;;;57.45;40.75;;;11.10;99.90;;;;;;5030427;28;20029;-50
2022/05/06 03:01:24;;;;;;;55.30;40.80;;;11.20;99.90;;;;;;5030482;28;20033;-50
2022/05/06 03:03:51;;;;;;;59.50;40.92;;;11.10;99.90;;;;;;5030218;28;20401;-51
2022/05/06 03:06:18;;;;;;;57.65;39.58;;;11.10;99.90;;;;;;5030033;28;20477;-50
2022/05/06 03:08:43;;;;;;;57.47;40.70;;;11.10;99.90;;;;;;5030076;28;20080;-50
2022/05/06 03:11:09;;;;;;;57.42;38.08;;;11.20;99.90;;;;;;5029336;28;20429;-50
2022/05/06 03:13:35;;;;;;;52.80;38.05;;;11.20;99.90;;;;;;5030016;28;20065;-51
2022/05/06 03:16:00;;;;;;;51.63;38.65;;;11.30;99.90;;;;;;5033012;28;20024;-50
2022/05/06 03:18:27;;;;;;;55.75;39.72;;;11.30;99.90;;;;;;5044897;28;20457;-50
2022/05/06 03:20:53;;;;;;;55.50;39.03;;;11.30;99.90;;;;;;5048607;28;20075;-50
2022/05/06 03:23:19;;;;;;;51.40;37.67;;;11.40;99.90;;;;;;5044941;28;20462;-50
2022/05/06 03:25:44;;;;;;;55.05;39.72;;;11.50;99.90;;;;;;5029729;28;20385;-50
2022/05/06 03:28:10;;;;;;;53.10;38.70;;;11.50;99.90;;;;;;5029630;28;20068;-50
2022/05/06 03:30:39;;;;;;;53.95;38.22;;;11.50;99.90;;;;;;5029948;28;20076;-50
2022/05/06 03:33:09;;;;;;;48.67;35.03;;;11.50;99.90;;;;;;5044738;28;20064;-50
2022/05/06 03:35:36;;;;;;;51.58;34.90;;;11.50;99.90;;;;;;5044152;28;20032;-49
2022/05/06 03:38:03;;;;;;;50.78;35.42;;;11.50;99.90;;;;;;5029622;28;20040;-50
2022/05/06 03:40:29;;;;;;;50.23;37.23;;;11.50;99.90;;;;;;5029641;28;20167;-50
2022/05/06 03:42:55;;;;;;;52.42;37.38;;;11.50;99.90;;;;;;5029578;28;20083;-50
2022/05/06 03:45:20;;;;;;;53.92;37.65;;;11.50;99.90;;;;;;5029545;28;20429;-50
2022/05/06 03:47:46;;;;;;;52.80;37.92;;;11.60;99.90;;;;;;5029828;28;20038;-50
2022/05/06 03:52:56;;;;;;;56.33;38.67;;;11.60;99.90;;;;;;5029402;28;20029;-49
2022/05/06 03:55:22;;;;;;;54.25;38.05;;;11.60;99.90;;;;;;5029784;28;20021;-50
2022/05/06 03:57:48;;;;;;;58.90;37.63;;;11.60;99.90;;;;;;5029786;28;20022;-49
2022/05/06 04:00:15;;;;;;;55.58;39.30;;;11.70;99.90;;;;;;5029345;28;20031;-50
2022/05/06 04:02:41;;;;;;;64.63;41.67;;;11.70;99.90;;;;;;5029536;28;20033;-51
2022/05/06 04:05:07;;;;;;;56.30;40.03;;;11.80;99.90;;;;;;5029373;28;20072;-50
2022/05/06 04:07:33;;;;;;;63.33;43.55;;;11.80;99.90;;;;;;5028809;28;20085;-50
2022/05/06 04:09:59;;;;;;;80.03;47.05;;;11.80;99.90;;;;;;5029567;28;20056;-50
2022/05/06 04:12:25;;;;;;;89.03;50.08;;;11.80;99.90;;;;;;5037488;28;20043;-50
2022/05/06 04:14:51;;;;;;;85.40;46.05;;;11.90;99.90;;;;;;5049066;28;20021;-50
2022/05/06 04:17:17;;;;;;;84.70;48.20;;;11.90;99.90;;;;;;5049446;28;20075;-50
2022/05/06 04:25:15;;;;;;;76.97;43.25;;;12.00;99.90;;;;;;5053344;28;20036;-50
2022/05/06 04:27:42;;;;;;;72.78;44.53;;;12.10;99.90;;;;;;5053277;28;20037;-50
2022/05/06 04:30:09;;;;;;;72.63;45.40;;;12.10;99.90;;;;;;5053178;28;20381;-50
2022/05/06 04:32:34;;;;;;;86.20;49.27;;;12.10;99.90;;;;;;5052706;28;20040;-49
2022/05/06 04:35:04;;;;;;;90.80;49.30;;;12.20;99.90;;;;;;5053038;28;20029;-50
2022/05/06 04:37:30;;;;;;;86.57;49.70;;;12.10;99.90;;;;;;5052873;28;20033;-49
2022/05/06 04:39:57;;;;;;;92.70;51.55;;;12.20;99.90;;;;;;5052827;28;20052;-49
2022/05/06 04:42:23;;;;;;;88.57;50.42;;;12.20;99.90;;;;;;5052768;28;20136;-50
2022/05/06 04:44:48;;;;;;;87.22;47.85;;;12.30;99.90;;;;;;5052586;28;20496;-50
2022/05/06 04:47:14;;;;;;;83.05;47.28;;;12.30;99.90;;;;;;5052709;28;20040;-51
2022/05/06 04:49:39;;;;;;;90.88;47.35;;;12.40;99.90;;;;;;5052568;28;20025;-49
2022/05/06 04:52:05;;;;;;;99.57;50.95;;;12.40;99.90;;;;;;5052832;28;20029;-49
2022/05/06 04:54:31;;;;;;;95.88;48.47;;;12.40;99.90;;;;;;5052355;28;20033;-49
2022/05/06 04:56:57;;;;;;;99.13;50.88;;;12.40;99.90;;;;;;5052768;28;20063;-50
2022/05/06 04:59:23;;;;;;;114.22;54.75;;;12.40;99.90;;;;;;5052669;28;20053;-50
2022/05/06 05:01:49;;;;;;;106.70;53.75;;;12.50;99.90;;;;;;5052500;28;20024;-50
2022/05/06 05:04:16;;;;;;;103.22;51.63;;;12.50;99.90;;;;;;5052225;28;20108;-50
2022/05/06 05:06:42;;;;;;;104.47;49.83;;;12.50;99.90;;;;;;5052103;28;20060;-50
2022/05/06 05:09:08;;;;;;;101.57;48.42;;;12.60;99.90;;;;;;5052489;28;20104;-50
2022/05/06 05:11:35;;;;;;;114.75;52.53;;;12.50;99.90;;;;;;5050662;28;20112;-50
2022/05/06 05:14:04;;;;;;;135.95;57.75;;;12.50;99.90;;;;;;5032309;28;20025;-50
2022/05/06 05:16:30;;;;;;;130.20;56.22;;;12.50;99.90;;;;;;5032251;28;20116;-50
2022/05/06 05:18:55;;;;;;;138.02;58.58;;;12.60;99.90;;;;;;5032085;28;20101;-50
2022/05/06 05:21:21;;;;;;;160.77;67.65;;;12.70;99.90;;;;;;5032157;28;20037;-50
2022/05/06 05:23:47;;;;;;;172.35;68.20;;;12.70;99.90;;;;;;5032346;28;20025;-51
2022/05/06 05:26:13;;;;;;;149.95;66.97;;;12.70;99.90;;;;;;5032241;28;20029;-50
2022/05/06 05:28:38;;;;;;;139.02;59.33;;;12.70;99.90;;;;;;5032024;28;20520;-50
2022/05/06 05:31:04;;;;;;;164.48;64.03;;;12.60;99.90;;;;;;5032125;28;20027;-49
2022/05/06 05:33:31;;;;;;;157.50;62.50;;;12.60;99.90;;;;;;5047866;28;20036;-50
2022/05/06 05:35:56;;;;;;;154.07;57.72;;;12.50;99.90;;;;;;5051817;28;20025;-50
2022/05/06 05:38:22;;;;;;;156.07;64.40;;;12.50;99.90;;;;;;5051874;28;20032;-50
2022/05/06 05:40:48;;;;;;;151.52;65.40;;;12.50;99.90;;;;;;5051808;28;20036;-50
2022/05/06 05:48:42;;;;;;;159.52;66.78;;;12.40;99.90;;;;;;5036762;28;20079;-50
2022/05/06 05:51:09;;;;;;;160.52;66.70;;;12.40;99.90;;;;;;5051860;28;20421;-50
2022/05/06 05:53:34;;;;;;;160.75;70.15;;;12.50;99.90;;;;;;5051529;28;20033;-51
2022/05/06 05:56:00;;;;;;;136.00;63.40;;;12.60;99.90;;;;;;5051604;28;20036;-50
2022/05/06 05:58:26;;;;;;;134.52;63.33;;;12.80;99.90;;;;;;5051552;28;20029;-50
2022/05/06 06:00:52;;;;;;;139.35;66.93;;;12.80;99.90;;;;;;5051313;28;20029;-50
2022/05/06 06:03:18;;;;;;;140.05;64.38;;;12.90;99.90;;;;;;5051504;28;20384;-50
2022/05/06 06:05:44;;;;;;;119.03;56.78;;;12.90;99.90;;;;;;5051250;28;20033;-50
2022/05/06 06:08:10;;;;;;;114.57;56.60;;;12.90;99.90;;;;;;5050733;28;20057;-51
2022/05/06 06:10:36;;;;;;;107.55;55.47;;;13.00;99.90;;;;;;5051408;28;20111;-51
2022/05/06 06:13:04;;;;;;;134.30;58.22;;;13.00;99.90;;;;;;5037729;28;20485;-51
2022/05/06 06:15:33;;;;;;;131.13;57.63;;;13.00;99.90;;;;;;5031218;28;20033;-51
2022/05/06 06:17:58;;;;;;;130.65;61.90;;;13.00;99.90;;;;;;5031364;28;20028;-51
2022/05/06 06:20:26;;;;;;;136.00;63.20;;;13.00;99.90;;;;;;5031194;28;20025;-50
2022/05/06 06:22:52;;;;;;;;;;;13.00;99.90;;;;;;5031283;28;20075;-50
2022/05/06 06:25:17;;;;;;;128.02;59.67;;;13.00;99.90;;;;;;5031292;28;19987;-50
2022/05/06 06:27:47;;;;;;;123.40;58.35;;;13.00;99.90;;;;;;5031106;28;20144;-50
2022/05/06 06:30:12;;;;;;;136.23;64.15;;;13.10;99.90;;;;;;5029800;28;20056;-54
2022/05/06 06:32:38;;;;;;;123.80;57.80;;;13.20;99.90;;;;;;5040678;28;20072;-50
2022/05/06 06:35:04;;;;;;;124.43;60.25;;;13.20;99.90;;;;;;5050847;28;20025;-50
2022/05/06 06:37:32;;;;;;;124.13;60.20;;;13.20;99.90;;;;;;5050685;28;20108;-50
2022/05/06 06:39:58;;;;;;;133.80;61.75;;;13.30;99.90;;;;;;5051037;28;20468;-50
2022/05/06 06:42:25;;;;;;;120.30;58.33;;;13.30;99.90;;;;;;5032622;28;20074;-50
2022/05/06 06:44:51;;;;;;;108.90;55.00;;;13.40;99.90;;;;;;5050200;28;20499;-51
2022/05/06 06:47:17;;;;;;;92.93;52.50;;;13.40;99.90;;;;;;5050408;28;20025;-50
2022/05/06 06:49:42;;;;;;;85.72;47.40;;;13.40;99.90;;;;;;5050463;28;20036;-50
2022/05/06 06:52:08;;;;;;;86.28;48.97;;;13.40;99.90;;;;;;5050297;28;20025;-51
2022/05/06 06:54:35;;;;;;;81.15;46.30;;;13.50;99.90;;;;;;5050417;28;20108;-50
2022/05/06 06:57:01;;;;;;;74.00;43.53;;;13.50;99.90;;;;;;5050649;28;20080;-50
2022/05/06 06:59:26;;;;;;;74.70;42.67;;;13.50;99.90;;;;;;5050190;28;20522;-50
2022/05/06 07:01:52;;;;;;;75.13;43.22;;;13.50;99.90;;;;;;5050171;28;20111;-50
2022/05/06 07:04:18;;;;;;;76.32;43.35;;;13.60;99.90;;;;;;5050095;28;20106;-50
2022/05/06 07:12:12;;;;;;;81.32;48.92;;;13.70;99.90;;;;;;5044048;28;20033;-51
2022/05/06 07:14:38;;;;;;;86.47;48.60;;;13.70;99.90;;;;;;5030151;28;20844;-49
2022/05/06 07:17:05;;;;;;;87.60;48.38;;;13.70;99.90;;;;;;5029750;28;20053;-51
2022/05/06 07:19:33;;;;;;;88.05;50.10;;;13.60;99.90;;;;;;5029543;28;20033;-50
2022/05/06 07:21:58;;;;;;;90.40;50.53;;;13.70;99.90;;;;;;5030023;28;20041;-50
2022/05/06 07:24:25;;;;;;;91.07;52.97;;;13.80;99.90;;;;;;5030032;28;20154;-50
2022/05/06 07:26:52;;;;;;;99.47;54.45;;;13.80;99.90;;;;;;5029753;28;20037;-51
2022/05/06 07:29:19;;;;;;;80.53;48.45;;;13.80;99.90;;;;;;5029974;28;20386;-50
2022/05/06 07:31:45;;;;;;;88.90;52.42;;;13.80;99.90;;;;;;5032559;28;20033;-50
2022/05/06 07:34:12;;;;;;;94.18;52.70;;;13.80;99.90;;;;;;5049359;28;20035;-50
2022/05/06 07:36:41;;;;;;;99.60;54.03;;;13.70;99.90;;;;;;5031752;28;20385;-51
2022/05/06 07:39:15;;;;;;;95.50;55.00;;;13.70;99.90;;;;;;5049815;28;20033;-50
2022/05/06 07:41:41;;;;;;;103.35;58.10;;;13.80;99.90;;;;;;5049623;28;20071;-51
2022/05/06 07:44:07;;;;;;;87.47;51.20;;;13.80;99.90;;;;;;5049696;28;20021;-50
2022/05/06 07:46:34;;;;;;;82.38;45.95;;;13.80;99.90;;;;;;5049525;28;20518;-50
2022/05/06 07:49:00;;;;;;;80.00;45.30;;;13.90;99.90;;;;;;5049974;28;20044;-50
2022/05/06 07:51:27;;;;;;;78.40;46.70;;;13.90;99.90;;;;;;5049619;28;20039;-51
2022/05/06 07:53:55;;;;;;;75.65;45.05;;;13.90;99.90;;;;;;5048023;28;20032;-51
2022/05/06 07:56:22;;;;;;;66.72;45.03;;;13.90;99.90;;;;;;5048696;28;20136;-50
2022/05/06 07:58:49;;;;;;;;;;;13.90;99.90;;;;;;5053115;28;20025;-50
2022/05/06 08:01:14;;;;;;;74.95;46.17;;;13.90;99.90;;;;;;5052804;28;19904;-51
2022/05/06 08:06:25;;;;;;;81.80;48.97;;;13.90;99.90;;;;;;5052202;28;20427;-50
2022/05/06 08:08:50;;;;;;;67.68;43.20;;;13.90;99.90;;;;;;5051458;28;20059;-50
2022/05/06 08:11:17;;;;;;;60.08;40.85;;;13.90;99.90;;;;;;5052135;28;20021;-51
2022/05/06 08:13:44;;;;;;;68.40;43.67;;;14.00;99.90;;;;;;5034388;28;20512;-50
2022/05/06 08:16:10;;;;;;;54.05;39.78;;;14.00;99.90;;;;;;5051919;28;20263;-50
2022/05/06 08:18:36;;;;;;;56.10;39.80;;;14.00;99.90;;;;;;5052323;28;20071;-51
2022/05/06 08:21:03;;;;;;;59.22;40.97;;;14.00;99.90;;;;;;5053127;28;20037;-53
2022/05/06 08:23:29;;;;;;;58.47;40.63;;;14.00;99.90;;;;;;5035274;28;20044;-51
2022/05/06 08:25:55;;;;;;;61.65;42.25;;;14.10;99.90;;;;;;5052916;28;20179;-51
2022/05/06 08:28:21;;;;;;;62.50;43.17;;;14.00;99.90;;;;;;5053506;28;20060;-50
2022/05/06 08:30:50;;;;;;;59.10;40.55;;;14.10;99.90;;;;;;5053326;28;20021;-50
2022/05/06 08:33:17;;;;;;;63.17;43.70;;;14.10;99.90;;;;;;5052709;28;20376;-50
2022/05/06 08:35:43;;;;;;;65.45;43.55;;;14.20;99.90;;;;;;5035166;28;20017;-51
2022/05/06 08:38:09;;;;;;;60.13;42.13;;;14.10;99.90;;;;;;5052830;28;20120;-52
2022/05/06 08:40:36;;;;;;;64.55;42.92;;;14.20;99.90;;;;;;5035331;28;20021;-51
2022/05/06 08:43:04;;;;;;;64.75;43.15;;;14.20;99.90;;;;;;5052773;28;20044;-51
2022/05/06 08:51:01;;;;;;;66.32;43.92;;;14.20;99.90;;;;;;5053009;28;20039;-50
2022/05/06 08:53:33;;;;;;;65.97;43.80;;;14.30;99.90;;;;;;5052713;28;20372;-50
2022/05/06 08:56:02;;;;;;;65.07;44.92;;;14.40;99.90;;;;;;5052497;28;20389;-50
2022/05/06 08:58:29;;;;;;;63.55;45.00;;;14.40;99.90;;;;;;5034165;28;20040;-50
2022/05/06 09:01:08;;;;;;;64.82;43.83;;;14.50;99.90;;;;;;5051344;28;20043;-50
2022/05/06 09:03:38;;;;;;;66.00;44.92;;;14.60;99.90;;;;;;5051394;28;20051;-50
2022/05/06 09:06:04;;;;;;;63.65;43.47;;;14.70;99.90;;;;;;5050099;28;20104;-50
2022/05/06 09:08:42;;;;;;;64.38;43.08;;;14.80;99.90;;;;;;5049090;28;20045;-50
2022/05/06 09:11:08;;;;;;;68.70;46.08;;;15.00;99.90;;;;;;5051991;28;20045;-50
2022/05/06 09:13:36;;;;;;;66.95;43.53;;;15.00;99.90;;;;;;5051956;28;20067;-50
2022/05/06 09:16:40;;;;;;;64.10;42.30;;;15.20;99.90;;;;;;5052799;28;20021;-50
2022/05/06 09:19:20;;;;;;;65.53;41.63;;;15.20;99.90;;;;;;5052027;28;20033;-50
2022/05/06 09:22:03;;;;;;;57.67;38.53;;;15.30;99.90;;;;;;5052044;28;20127;-51
2022/05/06 09:24:29;;;;;;;64.28;42.17;;;15.50;99.90;;;;;;5052147;28;20136;-50
2022/05/06 09:27:13;;;;;;;60.17;41.47;;;15.60;99.90;;;;;;5052112;28;20031;-51
2022/05/06 09:29:41;;;;;;;58.78;39.35;;;15.60;99.90;;;;;;5052134;28;20056;-51
2022/05/06 09:32:16;;;;;;;64.80;42.33;;;15.60;99.90;;;;;;5051792;28;20013;-51
2022/05/06 09:34:43;;;;;;;64.45;40.90;;;15.70;99.90;;;;;;5052198;28;20021;-51
2022/05/06 09:37:08;;;;;;;60.20;39.95;;;15.70;99.90;;;;;;5051887;28;20036;-50
2022/05/06 09:39:38;;;;;;;61.53;39.85;;;15.80;99.90;;;;;;5051851;28;20029;-50
2022/05/06 09:42:06;;;;;;;61.25;39.90;;;15.90;99.90;;;;;;5051862;28;20025;-50
2022/05/06 09:44:33;;;;;;;61.10;39.58;;;16.00;99.90;;;;;;5051707;28;20108;-50
2022/05/06 09:47:12;;;;;;;60.53;38.17;;;16.20;99.90;;;;;;5051711;28;20203;-50
2022/05/06 09:49:42;;;;;;;62.97;39.38;;;16.20;99.90;;;;;;5051703;28;20472;-50
2022/05/06 09:52:13;;;;;;;57.05;37.88;;;16.30;99.90;;;;;;5051565;28;20029;-50
2022/05/06 09:54:42;;;;;;;59.50;38.15;;;16.40;99.90;;;;;;5051449;28;20021;-51
2022/05/06 09:57:11;;;;;;;57.20;37.13;;;16.50;99.90;;;;;;5051833;28;20036;-50
2022/05/06 09:59:37;;;;;;;55.08;37.50;;;16.50;99.90;;;;;;5051332;28;20536;-49
2022/05/06 10:02:08;;;;;;;47.83;34.17;;;16.50;99.90;;;;;;5051506;28;20079;-50
2022/05/06 10:04:35;;;;;;;47.75;33.15;;;16.50;99.90;;;;;;5051560;28;20025;-49
2022/05/06 10:07:04;;;;;;;45.50;31.58;;;16.50;99.90;;;;;;5051127;28;20396;-50
2022/05/06 10:09:34;;;;;;;49.78;33.25;;;16.60;99.90;;;;;;5051324;28;20036;-49
2022/05/06 10:12:02;;;;;;;46.03;32.63;;;16.60;99.90;;;;;;5046340;28;20465;-50
2022/05/06 10:14:30;;;;;;;46.95;34.33;;;16.60;99.90;;;;;;5031717;28;20030;-52
2022/05/06 10:16:55;;;;;;;;;;;16.60;99.90;;;;;;5032158;28;20080;-50
2022/05/06 10:19:44;;;;;;;40.38;29.05;;;16.70;99.90;;;;;;5031022;28;19913;-50
2022/05/06 10:22:10;;;;;;;;;;;16.80;99.90;;;;;;5031414;28;20036;-51
2022/05/06 10:24:41;;;;;;;39.22;28.77;;;16.90;99.90;;;;;;5030786;28;19921;-50
2022/05/06 10:33:18;;;;;;;49.35;31.23;;;17.00;99.90;;;;;;5046502;28;20509;-50
2022/05/06 10:35:46;;;;;;;43.50;31.63;;;17.20;99.90;;;;;;5050988;28;20024;-50
2022/05/06 10:38:22;;;;;;;46.40;32.60;;;17.30;99.90;;;;;;5051030;28;20090;-50
2022/05/06 10:40:50;;;;;;;53.95;31.73;;;17.30;99.90;;;;;;5050702;28;20021;-50
2022/05/06 10:43:40;;;;;;;46.53;32.38;;;17.30;99.90;;;;;;5050570;28;20048;-50
2022/05/06 10:46:09;;;;;;;44.00;31.20;;;17.30;99.90;;;;;;5050866;28;20032;-50
2022/05/06 10:48:35;;;;;;;41.90;29.00;;;17.00;99.90;;;;;;5049499;28;20683;-50
2022/05/06 10:51:24;;;;;;;42.53;30.08;;;17.00;99.90;;;;;;5050532;28;20135;-50
2022/05/06 10:53:51;;;;;;;38.13;28.42;;;17.00;99.90;;;;;;5050295;28;20029;-50
2022/05/06 10:56:16;;;;;;;44.05;29.60;;;17.00;99.90;;;;;;5050629;28;20029;-51
2022/05/06 10:58:42;;;;;;;42.60;29.70;;;17.00;99.90;;;;;;5050388;28;20025;-50
2022/05/06 11:01:16;;;;;;;37.85;28.83;;;17.10;99.90;;;;;;5050248;28;20032;-50
2022/05/06 11:03:54;;;;;;;36.80;29.27;;;17.10;99.90;;;;;;5050331;28;20269;-50
2022/05/06 11:06:24;;;;;;;42.80;34.83;;;17.10;99.90;;;;;;5050372;28;20025;-50
2022/05/06 11:08:50;;;;;;;43.63;34.35;;;17.10;99.90;;;;;;5049657;28;20051;-51
2022/05/06 11:11:19;;;;;;;45.22;36.38;;;17.10;99.90;;;;;;5049903;28;20028;-50
2022/05/06 11:13:47;;;;;;;41.30;32.92;;;17.00;99.90;;;;;;5049958;28;20029;-49
2022/05/06 11:16:17;;;;;;;40.95;32.60;;;17.10;99.90;;;;;;5049927;28;20035;-51
2022/05/06 11:18:43;;;;;;;43.20;33.78;;;17.10;99.90;;;;;;5049751;28;20322;-50
2022/05/06 11:21:28;;;;;;;41.95;33.97;;;17.10;99.90;;;;;;5049999;28;20025;-50
2022/05/06 11:23:54;;;;;;;39.25;32.65;;;17.10;99.90;;;;;;5049888;28;20481;-50
2022/05/06 11:26:26;;;;;;;40.05;31.13;;;17.20;99.90;;;;;;5049786;28;20028;-51
2022/05/06 11:29:05;;;;;;;42.38;31.42;;;17.20;99.90;;;;;;5049465;28;20041;-50
2022/05/06 11:31:32;;;;;;;38.67;28.95;;;17.30;99.90;;;;;;5049154;28;20392;-51
2022/05/06 11:34:03;;;;;;;37.80;31.08;;;17.30;99.90;;;;;;5049704;28;20025;-51
2022/05/06 11:36:29;;;;;;;40.50;31.17;;;17.30;99.90;;;;;;5049690;28;20078;-50
2022/05/06 11:38:54;;;;;;;40.60;32.03;;;17.30;99.90;;;;;;5049809;28;20029;-51
2022/05/06 11:41:20;;;;;;;38.60;30.48;;;17.40;99.90;;;;;;5049510;28;20054;-50
2022/05/06 11:43:47;;;;;;;41.42;30.25;;;17.40;99.90;;;;;;5046273;28;20041;-50
2022/05/06 11:49:06;;;;;;;36.30;28.83;;;17.40;99.90;;;;;;5037952;28;20064;-50
2022/05/06 11:51:44;;;;;;;40.03;29.90;;;17.50;99.90;;;;;;5029851;28;20132;-49
2022/05/06 11:54:10;;;;;;;37.97;28.58;;;17.50;99.90;;;;;;5029456;28;20029;-51
2022/05/06 11:56:38;;;;;;;38.28;27.48;;;17.60;99.90;;;;;;5029724;28;20032;-49
2022/05/06 11:59:05;;;;;;;38.60;25.48;;;17.50;99.90;;;;;;5029578;28;20030;-51
2022/05/06 12:01:35;;;;;;;36.60;26.38;;;17.60;99.90;;;;;;5029551;28;20669;-51
2022/05/06 12:04:03;;;;;;;32.70;26.05;;;17.50;99.90;;;;;;5031531;28;20389;-51
2022/05/06 12:06:31;;;;;;;32.40;26.02;;;17.60;99.90;;;;;;5038272;28;20029;-51
2022/05/06 12:09:14;;;;;;;33.00;27.20;;;17.60;99.90;;;;;;5039787;28;20044;-50
2022/05/06 12:11:42;;;;;;;33.05;25.90;;;17.60;99.90;;;;;;5040210;28;20029;-51
2022/05/06 12:14:10;;;;;;;33.25;24.80;;;17.60;99.90;;;;;;5038395;28;20100;-51
2022/05/06 12:16:36;;;;;;;32.58;24.75;;;17.60;99.90;;;;;;5039885;28;20476;-51
2022/05/06 12:19:02;;;;;;;29.55;24.52;;;17.60;99.90;;;;;;5038219;28;20037;-51
2022/05/06 12:21:28;;;;;;;32.78;26.25;;;17.60;99.90;;;;;;5038141;28;20476;-51
2022/05/06 12:24:00;;;;;;;33.73;24.13;;;17.60;99.90;;;;;;5039698;28;20143;-51
2022/05/06 12:26:27;;;;;;;30.30;24.13;;;17.70;99.90;;;;;;5038496;28;20481;-51
2022/05/06 12:28:53;;;;;;;28.77;22.88;;;17.60;99.90;;;;;;5037974;28;20091;-51
2022/05/06 12:31:26;;;;;;;28.77;22.33;;;17.70;99.90;;;;;;5039962;28;20663;-51
2022/05/06 12:34:00;;;;;;;28.58;20.85;;;17.70;99.90;;;;;;5039738;28;20535;-51
2022/05/06 12:36:26;;;;;;;28.83;21.15;;;17.80;99.90;;;;;;5039646;28;20080;-50
2022/05/06 12:38:52;;;;;;;30.02;22.67;;;17.80;99.90;;;;;;5039492;28;20441;-51
2022/05/06 12:41:22;;;;;;;28.85;22.33;;;17.80;99.90;;;;;;5037573;28;20022;-52
2022/05/06 12:43:49;;;;;;;27.17;22.30;;;17.80;99.90;;;;;;5040595;28;20024;-50
2022/05/06 12:46:33;;;;;;;27.50;22.95;;;17.80;99.90;;;;;;5043248;28;20029;-49
2022/05/06 12:51:45;;;;;;;25.17;20.80;;;17.90;99.90;;;;;;5043568;28;20028;-50
2022/05/06 12:54:12;;;;;;;24.88;21.42;;;17.90;99.90;;;;;;5043025;28;20501;-50
2022/05/06 12:56:39;;;;;;;30.02;21.27;;;17.90;99.90;;;;;;5040826;28;20025;-50
2022/05/06 12:59:05;;;;;;;;;;;17.90;99.90;;;;;;5042705;28;20058;-51
2022/05/06 13:01:32;;;;;;;26.63;21.10;;;17.90;99.90;;;;;;5042950;28;19909;-50
2022/05/06 13:03:58;;;;;;;28.60;22.03;;;17.80;99.90;;;;;;5040901;28;20014;-49
2022/05/06 13:06:24;;;;;;;29.88;23.25;;;17.80;99.90;;;;;;5042857;28;20124;-50
2022/05/06 13:08:50;;;;;;;30.27;22.67;;;17.80;99.90;;;;;;5042211;28;20045;-50
2022/05/06 13:11:15;;;;;;;27.65;23.10;;;17.80;99.90;;;;;;5040560;28;20912;-50
2022/05/06 13:13:41;;;;;;;25.73;21.05;;;17.70;99.90;;;;;;5042326;28;20110;-50
2022/05/06 13:16:08;;;;;;;27.42;21.92;;;17.80;99.90;;;;;;5041712;28;20037;-51